Time;durP1;ratioP1;P1;durP2;ratioP2;P2;SDS_P1;SDS_P2;PMS_P1;PMS_P2;Temp;Humidity;BMP_temperature;BMP_pressure;BME280_temperature;BME280_humidity;BME280_pressure;Samples;Min_cycle;Max_cycle;Signal;HPM_P1;HPM_P2
2021/12/12 00:02:25;;;;;;;6.55;3.80;;;4.10;91.70;;;;;;5026243;28;20038;-80
2021/12/12 00:04:51;;;;;;;8.02;4.53;;;4.10;91.70;;;;;;5045916;28;20021;-79
2021/12/12 00:07:21;;;;;;;6.88;4.05;;;4.10;91.70;;;;;;5016413;28;20094;-79
2021/12/12 00:09:48;;;;;;;9.90;4.40;;;4.10;91.70;;;;;;5017861;28;20020;-79
2021/12/12 00:12:17;;;;;;;10.57;3.97;;;4.10;91.70;;;;;;5016958;28;20055;-80
2021/12/12 00:14:43;;;;;;;6.80;4.32;;;4.10;91.70;;;;;;5011626;28;20037;-80
2021/12/12 00:17:10;;;;;;;7.05;3.85;;;4.10;91.70;;;;;;5059773;28;20037;-80
2021/12/12 00:19:35;;;;;;;5.93;3.95;;;4.10;91.70;;;;;;5033724;28;20030;-79
2021/12/12 00:22:03;;;;;;;7.18;4.45;;;4.10;91.70;;;;;;5020911;28;20037;-80
2021/12/12 00:24:29;;;;;;;9.18;4.20;;;4.10;91.70;;;;;;5027581;28;20116;-80
2021/12/12 00:26:55;;;;;;;8.93;4.40;;;4.10;91.70;;;;;;5005657;28;20120;-80
2021/12/12 00:29:21;;;;;;;9.20;4.28;;;4.10;91.60;;;;;;5019217;28;20058;-79
2021/12/12 00:31:47;;;;;;;7.47;5.10;;;4.10;91.60;;;;;;5023530;28;20045;-80
2021/12/12 00:34:14;;;;;;;8.13;4.10;;;4.10;91.60;;;;;;5041691;28;20186;-79
2021/12/12 00:36:41;;;;;;;7.40;4.10;;;4.10;91.60;;;;;;5035516;28;20372;-79
2021/12/12 00:39:17;;;;;;;12.00;4.47;;;4.00;91.60;;;;;;5034415;28;20020;-79
2021/12/12 00:41:50;;;;;;;6.20;4.07;;;4.10;91.60;;;;;;5033975;28;20617;-80
2021/12/12 00:44:16;;;;;;;7.00;4.10;;;4.10;91.60;;;;;;5030951;28;20111;-79
2021/12/12 00:46:42;;;;;;;6.30;3.90;;;4.10;91.60;;;;;;5042957;28;20117;-80
2021/12/12 00:49:08;;;;;;;10.02;4.20;;;4.00;91.60;;;;;;5053267;28;20107;-80
2021/12/12 00:51:34;;;;;;;8.00;4.05;;;4.00;91.50;;;;;;5041219;28;20121;-79
2021/12/12 00:54:00;;;;;;;5.45;3.13;;;4.10;91.60;;;;;;5052336;28;20033;-80
2021/12/12 00:56:25;;;;;;;9.07;3.72;;;4.10;91.60;;;;;;5047792;28;20040;-79
2021/12/12 00:58:51;;;;;;;5.72;3.63;;;4.10;91.50;;;;;;5029088;28;20027;-80
2021/12/12 01:01:26;;;;;;;6.80;3.30;;;4.00;91.50;;;;;;5057247;28;20111;-80
2021/12/12 01:04:01;;;;;;;8.98;3.38;;;4.10;91.50;;;;;;5039232;28;20114;-79
2021/12/12 01:06:27;;;;;;;7.60;3.42;;;4.00;91.50;;;;;;5047384;28;20026;-80
2021/12/12 01:08:57;;;;;;;12.43;4.03;;;4.10;91.50;;;;;;5042441;28;20036;-80
2021/12/12 01:11:31;;;;;;;7.30;3.20;;;4.10;91.50;;;;;;5050077;28;20090;-79
2021/12/12 01:13:57;;;;;;;5.57;3.28;;;4.10;91.50;;;;;;5066769;28;20028;-80
2021/12/12 01:16:36;;;;;;;8.82;3.63;;;4.10;91.50;;;;;;5038631;28;20506;-80
2021/12/12 01:19:14;;;;;;;8.77;3.70;;;4.10;91.50;;;;;;5043630;28;20077;-79
2021/12/12 01:21:43;;;;;;;9.55;3.80;;;4.10;91.50;;;;;;5056094;28;20046;-79
2021/12/12 01:24:15;;;;;;;6.18;3.63;;;4.10;91.40;;;;;;5011140;28;20487;-80
2021/12/12 01:26:41;;;;;;;6.35;3.67;;;4.00;91.40;;;;;;5054402;28;20042;-79
2021/12/12 01:29:06;;;;;;;8.65;4.10;;;4.10;91.50;;;;;;5026514;28;20026;-80
2021/12/12 01:31:35;;;;;;;8.65;3.70;;;4.10;91.40;;;;;;5057264;28;20175;-80
2021/12/12 01:34:10;;;;;;;7.10;3.60;;;4.00;91.40;;;;;;5029978;28;20029;-80
2021/12/12 01:39:32;;;;;;;10.98;3.60;;;4.00;91.30;;;;;;5031859;28;21297;-80
2021/12/12 01:42:04;;;;;;;4.88;3.22;;;4.00;91.30;;;;;;5035204;28;20039;-79
2021/12/12 01:44:31;;;;;;;7.03;3.75;;;4.00;91.30;;;;;;5047291;28;20040;-79
2021/12/12 01:47:09;;;;;;;8.10;3.45;;;3.90;91.30;;;;;;5031431;28;20440;-79
2021/12/12 01:49:37;;;;;;;7.63;3.65;;;3.90;91.30;;;;;;5048346;28;20092;-78
2021/12/12 01:52:04;;;;;;;5.00;3.22;;;3.80;91.20;;;;;;5059990;28;20049;-80
2021/12/12 01:54:41;;;;;;;8.45;3.28;;;3.80;91.20;;;;;;5047968;28;20112;-78
2021/12/12 01:57:07;;;;;;;8.30;3.20;;;3.80;91.20;;;;;;5048158;28;20037;-78
2021/12/12 01:59:34;;;;;;;5.97;3.40;;;3.70;91.20;;;;;;5054664;28;20807;-79
2021/12/12 02:02:04;;;;;;;5.63;2.92;;;3.70;91.20;;;;;;5070853;28;20123;-79
2021/12/12 02:04:34;;;;;;;5.47;3.13;;;3.70;91.20;;;;;;5024352;28;20028;-79
2021/12/12 02:07:00;;;;;;;5.25;3.03;;;3.70;91.20;;;;;;5027114;28;20514;-78
2021/12/12 02:09:25;;;;;;;8.68;2.90;;;3.60;91.20;;;;;;5018813;28;20060;-80
2021/12/12 02:11:55;;;;;;;6.72;3.22;;;3.60;91.20;;;;;;5005497;28;20041;-79
2021/12/12 02:14:22;;;;;;;7.97;3.20;;;3.50;91.10;;;;;;5031274;28;20041;-78
2021/12/12 02:16:52;;;;;;;5.22;2.85;;;3.50;91.10;;;;;;5043341;28;22244;-79
2021/12/12 02:19:27;;;;;;;9.70;3.17;;;3.50;91.20;;;;;;5040806;28;20076;-79
2021/12/12 02:22:07;;;;;;;7.13;3.00;;;3.50;91.20;;;;;;5048259;28;20090;-79
2021/12/12 02:35:07;;;;;;;7.00;2.75;;;3.50;91.20;;;;;;5042951;28;20025;-80
2021/12/12 02:35:43;;;;;;;8.07;2.80;;;3.40;91.20;;;;;;5005371;28;20082;-79
2021/12/12 02:38:14;;;;;;;7.03;2.90;;;3.40;91.20;;;;;;5021927;28;20076;-79
2021/12/12 02:40:43;;;;;;;7.95;3.00;;;3.40;91.20;;;;;;5027733;28;20036;-79
2021/12/12 02:43:11;;;;;;;9.07;3.20;;;3.40;91.20;;;;;;5014486;28;20041;-79
2021/12/12 02:45:36;;;;;;;5.70;3.28;;;3.40;91.20;;;;;;5017527;28;20037;-79
2021/12/12 02:48:05;;;;;;;6.97;3.55;;;3.30;91.20;;;;;;5034700;28;20029;-79
2021/12/12 02:50:43;;;;;;;6.30;3.63;;;3.30;91.20;;;;;;5024369;28;20087;-79
2021/12/12 02:53:17;;;;;;;7.47;3.67;;;3.30;91.20;;;;;;5014025;28;20099;-80
2021/12/12 02:55:52;;;;;;;10.10;3.53;;;3.30;91.20;;;;;;5031837;28;20033;-80
2021/12/12 02:58:20;;;;;;;7.03;4.00;;;3.30;91.20;;;;;;5039988;28;20047;-79
2021/12/12 03:00:55;;;;;;;6.93;3.00;;;3.30;91.20;;;;;;5045395;28;20036;-79
2021/12/12 03:03:21;;;;;;;6.78;3.28;;;3.30;91.30;;;;;;5045401;28;20063;-80
2021/12/12 03:05:47;;;;;;;9.35;3.53;;;3.30;91.30;;;;;;5004382;28;20388;-78
2021/12/12 03:08:13;;;;;;;6.00;2.90;;;3.30;91.30;;;;;;5032238;28;20036;-78
2021/12/12 03:10:40;;;;;;;5.78;2.72;;;3.30;91.30;;;;;;5023455;28;20041;-78
2021/12/12 03:13:06;;;;;;;5.22;2.65;;;3.30;91.30;;;;;;5043518;28;20037;-79
2021/12/12 03:15:34;;;;;;;7.03;3.35;;;3.30;91.30;;;;;;5030577;28;20049;-79
2021/12/12 03:18:01;;;;;;;5.28;3.30;;;3.30;91.30;;;;;;5026921;28;20036;-78
2021/12/12 03:20:32;;;;;;;9.07;3.72;;;3.30;91.30;;;;;;5027696;28;20032;-78
2021/12/12 03:23:06;;;;;;;6.55;3.40;;;3.30;91.30;;;;;;5037849;28;20086;-79
2021/12/12 03:25:34;;;;;;;5.60;3.08;;;3.30;91.30;;;;;;5031700;28;20119;-79
2021/12/12 03:28:00;;;;;;;6.63;4.05;;;3.30;91.30;;;;;;5035722;28;20561;-78
2021/12/12 03:30:25;;;;;;;6.28;3.53;;;3.30;91.30;;;;;;5047648;28;20504;-79
2021/12/12 03:32:51;;;;;;;9.25;3.70;;;3.30;91.30;;;;;;5018145;28;20076;-78
2021/12/12 03:35:17;;;;;;;6.57;3.38;;;3.30;91.40;;;;;;5024471;28;20076;-78
2021/12/12 03:37:43;;;;;;;7.20;3.53;;;3.30;91.40;;;;;;5035681;28;20150;-79
2021/12/12 03:40:22;;;;;;;8.90;3.70;;;3.30;91.40;;;;;;5009105;28;20052;-79
2021/12/12 03:42:51;;;;;;;4.80;3.45;;;3.30;91.40;;;;;;5048493;28;20025;-79
2021/12/12 03:45:16;;;;;;;9.15;3.63;;;3.30;91.40;;;;;;5034915;28;20046;-79
2021/12/12 03:47:48;;;;;;;8.55;3.20;;;3.30;91.40;;;;;;5024789;28;20399;-78
2021/12/12 03:50:15;;;;;;;;;;;3.30;91.80;;;;;;5018331;28;20033;-80
2021/12/12 03:52:41;;;;;;;8.43;3.83;;;3.30;91.40;;;;;;5035070;28;19925;-78
2021/12/12 03:55:07;;;;;;;9.52;4.40;;;3.30;91.40;;;;;;5027628;28;20402;-78
2021/12/12 03:57:32;;;;;;;9.05;3.97;;;3.30;91.40;;;;;;4999644;28;20093;-79
2021/12/12 03:59:58;;;;;;;8.40;3.83;;;3.30;91.80;;;;;;5032355;28;20053;-79
2021/12/12 04:02:24;;;;;;;8.45;4.45;;;3.30;91.50;;;;;;5006675;28;20397;-79
2021/12/12 04:04:49;;;;;;;13.63;5.03;;;3.30;91.50;;;;;;5036992;28;20116;-78
2021/12/12 04:07:22;;;;;;;8.82;4.00;;;3.30;91.50;;;;;;5014466;28;20132;-78
2021/12/12 04:09:48;;;;;;;6.88;4.65;;;3.30;91.50;;;;;;5028905;28;20040;-78
2021/12/12 04:12:14;;;;;;;8.60;5.60;;;3.30;91.50;;;;;;4997931;28;20467;-78
2021/12/12 04:14:40;;;;;;;7.93;5.18;;;3.30;91.50;;;;;;5007075;28;20031;-79
2021/12/12 04:17:11;;;;;;;7.72;4.55;;;3.20;91.40;;;;;;5035368;28;20032;-78
2021/12/12 04:19:37;;;;;;;8.13;4.18;;;3.20;91.50;;;;;;5018373;28;20051;-78
2021/12/12 04:22:03;;;;;;;8.02;4.05;;;3.20;91.50;;;;;;5018926;28;20072;-79
2021/12/12 04:24:34;;;;;;;12.02;4.95;;;3.20;91.40;;;;;;5027921;28;20049;-78
2021/12/12 04:26:59;;;;;;;;;;;3.20;91.40;;;;;;5011094;28;20041;-79
2021/12/12 04:29:32;;;;;;;8.07;4.93;;;3.10;91.40;;;;;;5027158;28;19908;-78
2021/12/12 04:32:01;;;;;;;9.48;4.75;;;3.10;91.40;;;;;;5033282;28;20044;-79
2021/12/12 04:34:29;;;;;;;11.55;4.97;;;3.10;91.40;;;;;;5039666;28;20406;-79
2021/12/12 04:36:55;;;;;;;5.88;3.97;;;3.00;91.40;;;;;;5039380;28;20570;-79
2021/12/12 04:39:25;;;;;;;6.68;4.45;;;3.00;91.40;;;;;;5030801;28;20032;-79
2021/12/12 04:41:52;;;;;;;7.75;4.22;;;2.90;91.40;;;;;;5017066;28;20033;-80
2021/12/12 04:44:23;;;;;;;7.95;4.47;;;2.90;91.40;;;;;;5011811;28;20033;-80
2021/12/12 04:49:57;;;;;;;7.03;3.97;;;2.90;91.40;;;;;;5056545;28;20402;-80
2021/12/12 04:52:31;;;;;;;7.40;3.78;;;2.80;91.40;;;;;;5016893;28;20870;-80
2021/12/12 04:55:23;;;;;;;10.73;3.97;;;2.80;91.40;;;;;;5020633;28;20044;-80
2021/12/12 04:57:51;;;;;;;;;;;2.70;91.40;;;;;;5034411;28;20032;-80
2021/12/12 05:00:20;;;;;;;9.30;4.43;;;2.70;91.40;;;;;;5044009;28;19921;-80
2021/12/12 05:03:06;;;;;;;6.40;3.80;;;2.70;91.40;;;;;;5030309;28;20033;-80
2021/12/12 05:05:54;;;;;;;4.13;3.17;;;2.70;91.40;;;;;;5003933;28;20512;-77
2021/12/12 05:08:39;;;;;;;6.25;3.58;;;2.60;91.40;;;;;;5022972;28;20094;-77
2021/12/12 05:11:08;;;;;;;7.65;3.38;;;2.60;91.40;;;;;;5022170;28;20036;-77
2021/12/12 05:13:33;;;;;;;5.82;3.28;;;2.60;91.40;;;;;;5040401;28;20071;-77
2021/12/12 05:16:09;;;;;;;9.38;3.40;;;2.50;91.40;;;;;;5021693;28;20505;-77
2021/12/12 05:18:46;;;;;;;5.15;3.22;;;2.50;91.40;;;;;;5027750;28;20043;-77
2021/12/12 05:21:12;;;;;;;4.88;3.33;;;2.50;91.40;;;;;;5023295;28;20059;-77
2021/12/12 05:23:40;;;;;;;5.63;3.13;;;2.40;91.40;;;;;;5028729;28;20070;-77
2021/12/12 05:26:25;;;;;;;4.38;3.15;;;2.40;91.40;;;;;;4997932;28;20144;-77
2021/12/12 05:29:04;;;;;;;6.22;3.30;;;2.40;91.50;;;;;;5034517;28;20041;-77
2021/12/12 05:31:30;;;;;;;6.35;2.97;;;2.40;91.50;;;;;;5023656;28;20030;-77
2021/12/12 05:33:56;;;;;;;7.82;3.30;;;2.40;91.50;;;;;;5022765;28;20021;-77
2021/12/12 05:36:21;;;;;;;6.68;3.08;;;2.30;91.50;;;;;;5035739;28;20022;-77
2021/12/12 05:38:47;;;;;;;4.43;2.80;;;2.30;91.40;;;;;;5022533;28;20029;-77
2021/12/12 05:41:14;;;;;;;7.38;2.78;;;2.30;91.50;;;;;;5003868;28;20115;-77
2021/12/12 05:43:39;;;;;;;6.38;2.80;;;2.20;91.40;;;;;;5001777;28;20088;-78
2021/12/12 05:46:05;;;;;;;7.75;3.63;;;2.20;91.40;;;;;;5002332;28;20743;-78
2021/12/12 05:48:30;;;;;;;6.22;3.08;;;2.20;91.50;;;;;;5007171;28;20411;-78
2021/12/12 05:50:56;;;;;;;5.53;3.13;;;2.20;91.50;;;;;;5024901;28;20080;-78
2021/12/12 05:53:21;;;;;;;6.28;3.20;;;2.10;91.40;;;;;;5020838;28;20040;-78
2021/12/12 05:55:47;;;;;;;6.20;3.03;;;2.10;91.50;;;;;;5013979;28;20165;-79
2021/12/12 05:58:18;;;;;;;5.68;3.28;;;2.10;91.50;;;;;;5030758;28;20037;-79
2021/12/12 06:00:56;;;;;;;6.00;3.03;;;2.10;91.50;;;;;;5018916;28;20043;-81
2021/12/12 06:03:24;;;;;;;7.13;2.75;;;2.10;91.50;;;;;;5031996;28;20039;-82
2021/12/12 06:05:51;;;;;;;5.30;3.00;;;2.00;91.50;;;;;;5009586;28;20063;-81
2021/12/12 06:08:16;;;;;;;7.55;3.08;;;2.00;91.60;;;;;;4994899;28;20053;-81
2021/12/12 06:10:42;;;;;;;6.68;2.80;;;2.00;91.60;;;;;;5029526;28;20232;-78
2021/12/12 06:13:11;;;;;;;5.25;2.63;;;2.00;91.60;;;;;;4991137;28;20048;-79
2021/12/12 06:15:36;;;;;;;5.15;2.88;;;2.00;91.60;;;;;;5012767;28;20036;-79
2021/12/12 06:18:02;;;;;;;9.85;7.20;;;1.90;91.60;;;;;;5015801;28;20037;-78
2021/12/12 06:20:28;;;;;;;5.55;3.38;;;1.90;91.60;;;;;;5024856;28;20407;-78
2021/12/12 06:22:54;;;;;;;14.45;8.70;;;1.90;91.60;;;;;;5026773;28;20046;-80
2021/12/12 06:25:19;;;;;;;6.68;4.10;;;1.90;91.60;;;;;;5026487;28;20518;-80
2021/12/12 06:27:45;;;;;;;6.88;3.30;;;1.90;91.60;;;;;;5035644;28;20021;-81
2021/12/12 06:30:20;;;;;;;6.07;4.43;;;1.90;92.00;;;;;;5033242;28;20068;-80
2021/12/12 06:32:46;;;;;;;6.10;3.22;;;1.90;91.70;;;;;;5027365;28;20060;-80
2021/12/12 06:35:11;;;;;;;5.53;3.15;;;1.90;91.70;;;;;;5033148;28;20033;-81
2021/12/12 06:37:37;;;;;;;6.60;2.70;;;1.90;91.70;;;;;;5046354;28;20108;-81
2021/12/12 06:40:04;;;;;;;10.82;3.33;;;1.90;91.70;;;;;;5012004;28;20041;-81
2021/12/12 06:42:30;;;;;;;4.80;2.83;;;1.90;91.70;;;;;;5037383;28;20568;-81
2021/12/12 06:44:55;;;;;;;7.20;3.00;;;1.90;91.80;;;;;;5013041;28;20052;-81
2021/12/12 06:47:21;;;;;;;6.75;3.55;;;1.90;91.80;;;;;;5039668;28;20079;-81
2021/12/12 06:49:46;;;;;;;7.53;5.22;;;1.90;91.80;;;;;;5020205;28;20030;-81
2021/12/12 06:52:13;;;;;;;10.45;5.57;;;1.90;91.80;;;;;;5027378;28;20124;-81
2021/12/12 06:54:39;;;;;;;12.30;5.15;;;1.90;91.80;;;;;;5002639;28;20032;-81
2021/12/12 06:57:07;;;;;;;7.70;3.55;;;1.80;91.80;;;;;;4993961;28;20037;-79
2021/12/12 06:59:34;;;;;;;3.80;2.45;;;1.80;91.80;;;;;;5029479;28;20525;-79
2021/12/12 07:02:00;;;;;;;10.77;3.40;;;1.90;91.80;;;;;;5015147;28;20137;-79
2021/12/12 07:04:27;;;;;;;6.65;3.17;;;1.90;91.80;;;;;;5018500;28;20116;-79
2021/12/12 07:06:53;;;;;;;7.20;2.67;;;1.90;91.80;;;;;;5016914;28;20099;-78
2021/12/12 07:09:19;;;;;;;8.55;3.28;;;1.90;91.80;;;;;;5032076;28;20053;-81
2021/12/12 07:11:46;;;;;;;14.40;5.82;;;1.90;91.80;;;;;;5003192;28;20530;-82
2021/12/12 07:14:12;;;;;;;8.02;4.13;;;1.90;91.80;;;;;;5025359;28;20057;-81
2021/12/12 07:16:37;;;;;;;9.40;4.70;;;1.90;91.90;;;;;;5024648;28;20104;-82
2021/12/12 07:19:03;;;;;;;8.18;3.90;;;1.80;91.70;;;;;;5027422;28;20036;-81
2021/12/12 07:21:30;;;;;;;5.50;3.60;;;1.90;91.90;;;;;;5023266;28;20025;-80
2021/12/12 07:23:56;;;;;;;9.80;4.60;;;1.90;91.90;;;;;;5030919;28;20091;-82
2021/12/12 07:26:22;;;;;;;11.07;4.95;;;1.90;91.90;;;;;;5035443;28;20495;-81
2021/12/12 07:28:48;;;;;;;13.15;6.72;;;1.90;91.90;;;;;;5039785;28;20040;-81
2021/12/12 07:31:16;;;;;;;12.65;6.60;;;1.90;91.90;;;;;;5027869;28;20048;-81
2021/12/12 07:33:42;;;;;;;12.43;5.78;;;1.90;91.90;;;;;;5040132;28;20064;-80
2021/12/12 07:36:08;;;;;;;7.13;5.10;;;1.90;91.90;;;;;;5039050;28;20537;-81
2021/12/12 07:38:35;;;;;;;8.55;5.18;;;1.90;91.90;;;;;;5030956;28;20068;-81
2021/12/12 07:41:01;;;;;;;9.85;5.30;;;1.90;91.90;;;;;;5030214;28;20045;-81
2021/12/12 07:43:27;;;;;;;9.65;4.97;;;1.90;91.90;;;;;;5047252;28;20033;-82
2021/12/12 07:45:53;;;;;;;8.02;5.05;;;1.90;91.90;;;;;;5062230;28;20072;-81
2021/12/12 07:48:19;;;;;;;8.20;5.38;;;2.00;92.00;;;;;;5028525;28;20025;-81
2021/12/12 07:50:45;;;;;;;12.55;6.13;;;1.90;91.90;;;;;;5022012;28;20036;-81
2021/12/12 07:53:10;;;;;;;12.15;5.50;;;2.00;92.00;;;;;;5011783;28;20140;-80
2021/12/12 07:55:36;;;;;;;8.25;4.78;;;2.00;92.00;;;;;;5050585;28;20026;-81
2021/12/12 07:58:06;;;;;;;12.23;5.65;;;2.00;92.00;;;;;;5041126;28;20035;-81
2021/12/12 08:00:32;;;;;;;9.02;3.83;;;2.10;92.00;;;;;;5041143;28;20036;-81
2021/12/12 08:02:57;;;;;;;9.05;4.30;;;2.00;92.00;;;;;;5027977;28;20571;-81
2021/12/12 08:05:28;;;;;;;8.77;4.20;;;2.10;92.10;;;;;;5028623;28;20033;-81
2021/12/12 08:07:58;;;;;;;7.57;4.20;;;2.10;92.00;;;;;;5030341;28;20037;-81
2021/12/12 08:10:23;;;;;;;8.90;4.53;;;2.20;92.10;;;;;;5017293;28;20033;-81
2021/12/12 08:12:49;;;;;;;5.85;3.97;;;2.20;92.00;;;;;;5037836;28;20166;-81
2021/12/12 08:15:15;;;;;;;14.02;7.00;;;2.20;92.00;;;;;;5029999;28;20078;-82
2021/12/12 08:17:42;;;;;;;10.05;5.53;;;2.20;92.00;;;;;;5029393;28;20113;-82
2021/12/12 08:20:08;;;;;;;15.73;6.88;;;2.30;92.00;;;;;;5028281;28;20037;-81
2021/12/12 08:22:34;;;;;;;8.77;5.82;;;2.20;92.00;;;;;;5047622;28;20055;-81
2021/12/12 08:25:00;;;;;;;11.18;6.53;;;2.20;92.00;;;;;;5026697;28;20061;-82
2021/12/12 08:27:25;;;;;;;9.63;6.35;;;2.30;92.00;;;;;;5027673;28;20028;-81
2021/12/12 08:29:51;;;;;;;10.73;5.68;;;2.30;92.00;;;;;;5030368;28;20040;-82
2021/12/12 08:32:16;;;;;;;9.60;5.47;;;2.30;92.00;;;;;;5023701;28;20045;-82
2021/12/12 08:34:42;;;;;;;14.95;7.20;;;2.40;92.10;;;;;;5031587;28;20147;-82
2021/12/12 08:37:08;;;;;;;22.90;10.73;;;2.40;92.10;;;;;;5044039;28;20139;-82
2021/12/12 08:39:33;;;;;;;24.08;6.20;;;2.40;92.10;;;;;;5055372;28;20033;-82
2021/12/12 08:41:59;;;;;;;11.60;5.88;;;2.40;92.00;;;;;;5006487;28;20138;-82
2021/12/12 08:44:27;;;;;;;10.50;4.85;;;2.50;92.00;;;;;;5031221;28;20387;-81
2021/12/12 08:46:53;;;;;;;10.93;4.97;;;2.50;92.00;;;;;;5002433;28;20021;-83
2021/12/12 08:49:22;;;;;;;7.15;4.30;;;2.50;92.00;;;;;;5007234;28;20029;-81
2021/12/12 08:51:57;;;;;;;9.50;4.20;;;2.60;92.00;;;;;;5023933;28;20116;-82
2021/12/12 08:54:26;;;;;;;10.40;4.25;;;2.60;92.00;;;;;;5018352;28;20117;-81
2021/12/12 08:57:05;;;;;;;8.05;3.58;;;2.70;92.00;;;;;;5025967;28;20118;-81
2021/12/12 08:59:33;;;;;;;6.30;3.80;;;2.70;92.00;;;;;;5009379;28;20024;-80
2021/12/12 09:02:02;;;;;;;7.20;3.65;;;2.70;92.00;;;;;;5021076;28;20206;-82
2021/12/12 09:04:32;;;;;;;7.50;3.90;;;2.80;92.00;;;;;;5017833;28;20039;-83
2021/12/12 09:07:08;;;;;;;8.00;4.82;;;2.80;91.90;;;;;;5031645;28;20036;-82
2021/12/12 09:09:39;;;;;;;13.35;4.30;;;2.90;91.90;;;;;;5041174;28;20031;-82
2021/12/12 09:12:11;;;;;;;17.13;7.07;;;2.90;91.90;;;;;;5063645;28;20049;-82
2021/12/12 09:14:44;;;;;;;7.85;4.65;;;2.90;91.90;;;;;;5013879;28;20287;-81
2021/12/12 09:17:28;;;;;;;14.13;5.90;;;3.00;91.90;;;;;;5002851;28;20094;-82
2021/12/12 09:20:02;;;;;;;13.07;5.28;;;3.00;91.90;;;;;;5036454;28;20117;-81
2021/12/12 09:22:33;;;;;;;14.02;7.35;;;3.00;91.90;;;;;;5024253;28;20326;-82
2021/12/12 09:25:01;;;;;;;11.05;4.95;;;3.10;91.90;;;;;;5047633;28;20109;-82
2021/12/12 09:27:59;;;;;;;10.65;3.80;;;3.10;91.90;;;;;;5056627;28;20092;-81
2021/12/12 09:30:25;;;;;;;16.00;6.50;;;3.20;91.90;;;;;;5054343;28;20029;-82
2021/12/12 09:32:57;;;;;;;15.63;5.78;;;3.20;91.80;;;;;;5050314;28;20036;-83
2021/12/12 09:35:24;;;;;;;8.52;4.03;;;3.30;91.80;;;;;;5057718;28;20036;-82
2021/12/12 09:38:04;;;;;;;7.40;3.97;;;3.40;91.80;;;;;;5033299;28;20036;-82
2021/12/12 09:40:54;;;;;;;11.32;3.70;;;3.40;91.80;;;;;;5013881;28;20032;-82
2021/12/12 09:43:33;;;;;;;7.93;3.63;;;3.50;91.80;;;;;;5063136;28;20032;-83
2021/12/12 09:46:00;;;;;;;5.82;3.85;;;3.50;91.70;;;;;;5029307;28;20032;-81
2021/12/12 09:51:41;;;;;;;7.05;3.13;;;3.60;91.60;;;;;;5056523;28;20094;-81
2021/12/12 09:54:32;;;;;;;4.63;3.13;;;3.70;91.70;;;;;;5039039;28;20033;-82
2021/12/12 09:57:06;;;;;;;6.22;3.65;;;3.70;91.60;;;;;;5059088;28;20028;-81
2021/12/12 10:00:05;;;;;;;6.82;3.47;;;3.70;91.60;;;;;;5057516;28;20020;-79
2021/12/12 10:03:08;;;;;;;9.88;3.13;;;3.80;91.50;;;;;;5059531;28;20368;-81
2021/12/12 10:05:52;;;;;;;8.15;3.00;;;3.80;91.50;;;;;;5051321;28;20090;-79
2021/12/12 10:08:43;;;;;;;17.65;7.18;;;3.90;91.50;;;;;;5056481;28;20478;-83
2021/12/12 10:11:26;;;;;;;7.47;3.97;;;3.90;91.50;;;;;;5020669;28;20032;-83
2021/12/12 10:14:01;;;;;;;4.55;2.17;;;4.00;91.40;;;;;;5052102;28;20032;-82
2021/12/12 10:16:50;;;;;;;55.40;18.95;;;4.00;91.40;;;;;;5053446;28;20031;-82
2021/12/12 10:19:28;;;;;;;10.65;4.35;;;4.00;91.30;;;;;;5024384;28;20028;-81
2021/12/12 10:22:01;;;;;;;28.65;9.05;;;4.10;91.30;;;;;;5068416;28;20452;-84
2021/12/12 10:24:30;;;;;;;13.90;5.30;;;4.10;91.30;;;;;;5035535;28;20020;-79
2021/12/12 10:27:01;;;;;;;28.90;11.32;;;4.10;91.30;;;;;;5049625;28;20090;-79
2021/12/12 10:29:30;;;;;;;;;;;4.20;91.20;;;;;;5034175;28;20422;-79
2021/12/12 10:32:03;;;;;;;7.15;3.78;;;4.20;91.20;;;;;;5052776;28;20482;-80
2021/12/12 10:34:42;;;;;;;5.05;2.50;;;4.20;91.20;;;;;;5047458;28;20040;-80
2021/12/12 10:37:16;;;;;;;9.15;4.22;;;4.30;91.20;;;;;;5034198;28;20042;-80
2021/12/12 10:40:06;;;;;;;6.10;2.60;;;4.30;91.20;;;;;;5042738;28;20441;-80
2021/12/12 10:42:37;;;;;;;8.05;3.05;;;4.30;91.10;;;;;;5022034;28;20036;-79
2021/12/12 10:45:22;;;;;;;7.18;2.60;;;4.30;91.10;;;;;;5025932;28;20472;-79
2021/12/12 10:47:54;;;;;;;7.07;3.65;;;4.40;91.00;;;;;;5010979;28;20033;-79
2021/12/12 10:50:30;;;;;;;;;;;4.40;91.00;;;;;;5055807;28;20037;-79
2021/12/12 10:53:17;;;;;;;6.10;3.05;;;4.40;91.00;;;;;;5011085;28;19952;-79
2021/12/12 10:55:54;;;;;;;4.65;2.30;;;4.50;90.90;;;;;;5043022;28;20060;-79
2021/12/12 10:58:39;;;;;;;5.55;2.38;;;4.50;91.00;;;;;;5006852;28;20033;-79
2021/12/12 11:01:16;;;;;;;7.63;2.30;;;4.50;90.90;;;;;;5044774;28;20063;-79
2021/12/12 11:03:50;;;;;;;4.93;2.85;;;4.60;90.90;;;;;;5043165;28;20067;-79
2021/12/12 11:06:20;;;;;;;5.05;2.65;;;4.60;90.90;;;;;;5050280;28;20038;-79
2021/12/12 11:09:07;;;;;;;4.85;2.75;;;4.60;90.80;;;;;;5036785;28;20079;-79
2021/12/12 11:12:06;;;;;;;5.80;2.60;;;4.60;90.70;;;;;;5050499;28;20501;-79
2021/12/12 11:14:38;;;;;;;5.93;2.40;;;4.70;90.70;;;;;;5019516;28;20503;-79
2021/12/12 11:17:03;;;;;;;;;;;4.70;90.70;;;;;;5040817;28;20534;-79
2021/12/12 11:19:31;;;;;;;3.20;2.08;;;4.70;90.70;;;;;;5053391;28;19958;-79
2021/12/12 11:22:20;;;;;;;3.35;2.10;;;4.80;90.70;;;;;;5047167;28;20066;-79
2021/12/12 11:24:49;;;;;;;7.78;2.95;;;4.80;90.70;;;;;;5026101;28;20036;-79
2021/12/12 11:27:48;;;;;;;7.07;3.45;;;4.80;90.70;;;;;;5054285;28;20683;-79
2021/12/12 11:30:30;;;;;;;5.53;2.55;;;4.80;90.50;;;;;;5037709;28;20070;-79
2021/12/12 11:32:55;;;;;;;;;;;4.80;90.50;;;;;;5044907;28;20040;-79
2021/12/12 11:35:23;;;;;;;6.43;2.70;;;4.90;90.60;;;;;;5047657;28;19913;-79
2021/12/12 11:37:56;;;;;;;9.82;3.90;;;4.90;90.60;;;;;;5039181;28;20101;-79
2021/12/12 11:40:33;;;;;;;7.28;3.63;;;4.90;90.50;;;;;;5030863;28;20051;-79
2021/12/12 11:43:32;;;;;;;7.00;3.30;;;4.90;90.50;;;;;;5057101;28;20052;-79
2021/12/12 11:46:06;;;;;;;10.73;3.45;;;4.90;90.40;;;;;;5027022;28;20055;-79
2021/12/12 11:48:40;;;;;;;3.13;2.25;;;4.90;90.40;;;;;;5030920;28;20403;-79
2021/12/12 11:51:18;;;;;;;4.57;2.67;;;5.00;90.40;;;;;;5060548;28;20113;-79
2021/12/12 11:53:52;;;;;;;7.35;2.60;;;5.00;90.40;;;;;;5034457;28;20059;-79
2021/12/12 11:56:31;;;;;;;4.22;2.85;;;5.00;90.30;;;;;;5044914;28;20036;-79
2021/12/12 11:59:08;;;;;;;3.65;3.08;;;5.00;90.40;;;;;;5052998;28;20043;-79
2021/12/12 12:01:39;;;;;;;6.50;3.35;;;5.10;90.40;;;;;;5071183;28;20029;-79
2021/12/12 12:04:50;;;;;;;6.85;2.42;;;5.10;90.30;;;;;;5031124;28;20093;-79
2021/12/12 12:07:22;;;;;;;6.15;1.60;;;5.10;90.20;;;;;;5041650;28;20038;-80
2021/12/12 12:10:02;;;;;;;3.78;2.15;;;5.10;90.20;;;;;;5055479;28;20047;-79
2021/12/12 12:12:49;;;;;;;4.97;2.58;;;5.20;90.20;;;;;;5030426;28;20054;-79
2021/12/12 12:15:28;;;;;;;7.35;3.30;;;5.20;90.10;;;;;;5054112;28;20025;-82
2021/12/12 12:17:56;;;;;;;5.63;2.45;;;5.20;90.10;;;;;;5061866;28;20067;-82
2021/12/12 12:20:36;;;;;;;13.57;5.45;;;5.20;90.10;;;;;;5042582;28;20093;-83
2021/12/12 12:23:33;;;;;;;4.28;2.75;;;5.20;90.10;;;;;;5046416;28;20120;-83
2021/12/12 12:29:04;;;;;;;37.72;13.27;;;5.30;90.10;;;;;;5040134;28;20082;-82
2021/12/12 12:31:55;;;;;;;11.75;5.00;;;5.30;90.00;;;;;;5050454;28;20085;-83
2021/12/12 12:34:58;;;;;;;22.98;7.95;;;5.30;90.00;;;;;;5068988;28;20090;-83
2021/12/12 12:38:01;;;;;;;9.32;3.53;;;5.30;89.80;;;;;;5061413;28;20033;-79
2021/12/12 12:41:04;;;;;;;25.27;8.88;;;5.30;89.70;;;;;;5057172;28;20056;-79
2021/12/12 12:44:07;;;;;;;9.98;4.10;;;5.30;89.60;;;;;;5067582;28;20069;-79
2021/12/12 12:47:10;;;;;;;14.55;5.35;;;5.40;89.70;;;;;;5067153;28;20608;-79
2021/12/12 12:50:25;;;;;;;26.50;8.27;;;5.40;89.70;;;;;;5081761;28;20028;-79
2021/12/12 12:53:25;;;;;;;43.75;10.18;;;5.40;89.70;;;;;;5047688;28;20043;-82
2021/12/12 12:56:23;;;;;;;22.40;9.30;;;5.40;89.60;;;;;;5050031;28;20080;-84
2021/12/12 12:58:58;;;;;;;18.45;8.25;;;5.40;89.60;;;;;;5057989;28;20031;-83
2021/12/12 13:01:29;;;;;;;12.82;7.10;;;5.50;89.80;;;;;;5053671;28;20066;-83
2021/12/12 13:04:01;;;;;;;26.08;9.95;;;5.50;89.70;;;;;;5056344;28;20064;-82
2021/12/12 13:06:45;;;;;;;;;;;5.50;89.60;;;;;;5063503;28;20105;-84
2021/12/12 13:09:19;;;;;;;14.80;6.00;;;5.50;89.80;;;;;;5061564;28;20007;-84
2021/12/12 13:12:08;;;;;;;12.57;5.47;;;5.50;89.60;;;;;;5059785;28;20056;-82
2021/12/12 13:14:45;;;;;;;11.63;6.05;;;5.50;89.50;;;;;;5047479;28;20518;-84
2021/12/12 13:17:51;;;;;;;11.15;5.93;;;5.60;89.60;;;;;;5055919;28;20517;-80
2021/12/12 13:20:43;;;;;;;9.80;3.90;;;5.60;89.30;;;;;;5046702;28;20383;-80
2021/12/12 13:23:20;;;;;;;;;;;5.60;89.40;;;;;;5037835;28;20048;-80
2021/12/12 13:25:59;;;;;;;5.50;1.83;;;5.60;89.60;;;;;;5072861;28;20366;-80
2021/12/12 13:28:56;;;;;;;4.57;2.85;;;5.70;89.40;;;;;;5068761;28;20035;-80
2021/12/12 13:31:39;;;;;;;7.93;3.80;;;5.70;89.40;;;;;;5053437;28;20181;-80
2021/12/12 13:34:19;;;;;;;5.85;2.55;;;5.80;89.50;;;;;;5066541;28;20067;-80
2021/12/12 13:36:50;;;;;;;7.97;3.80;;;5.80;89.40;;;;;;5034323;28;20393;-80
2021/12/12 13:39:40;;;;;;;7.67;3.17;;;5.80;89.30;;;;;;5055189;28;20031;-79
2021/12/12 13:42:45;;;;;;;8.00;2.70;;;5.80;89.20;;;;;;5064605;28;20484;-80
2021/12/12 13:45:26;;;;;;;6.97;2.45;;;5.80;89.00;;;;;;5047030;28;20178;-80
2021/12/12 13:48:04;;;;;;;7.68;2.63;;;5.90;89.20;;;;;;5062889;28;20048;-81